createdAt,value
2019-05-10T00:01:32.071Z,90.14
2019-05-10T00:04:18.865Z,90.35
2019-05-10T00:07:05.489Z,90.60
2019-05-10T00:09:33.975Z,90.79
2019-05-10T00:12:14.941Z,90.97
2019-05-10T00:14:51.764Z,91.10
2019-05-10T00:17:21.959Z,91.08
2019-05-10T00:19:50.815Z,90.91
2019-05-10T00:22:20.342Z,91.00
2019-05-10T00:25:03.176Z,91.25
2019-05-10T00:27:19.700Z,91.42
2019-05-10T00:29:48.426Z,91.53
2019-05-10T00:32:17.450Z,91.68
2019-05-10T00:34:46.139Z,91.85
2019-05-10T00:37:15.116Z,91.91
2019-05-10T00:39:44.521Z,91.85
2019-05-10T00:42:13.515Z,92.01
2019-05-10T00:44:42.431Z,92.12
2019-05-10T00:47:11.391Z,92.37
2019-05-10T00:49:40.101Z,92.37
2019-05-10T00:52:08.840Z,92.61
2019-05-10T00:54:37.430Z,92.87
2019-05-10T00:57:06.128Z,92.66
2019-05-10T00:59:34.780Z,92.74
2019-05-10T01:02:03.481Z,92.87
2019-05-10T01:04:32.410Z,92.62
2019-05-10T01:07:01.089Z,92.86
2019-05-10T01:09:29.704Z,92.91
2019-05-10T01:11:58.654Z,92.68
2019-05-10T01:14:27.570Z,92.81
2019-05-10T01:16:56.777Z,92.99
2019-05-10T01:19:25.658Z,92.91
2019-05-10T01:21:54.550Z,92.80
2019-05-10T01:24:24.159Z,92.89
2019-05-10T01:26:52.788Z,92.63
2019-05-10T01:29:22.149Z,92.58
2019-05-10T01:31:50.777Z,92.51
2019-05-10T01:34:20.027Z,92.11
2019-05-10T01:36:49.016Z,92.00
2019-05-10T01:39:17.913Z,92.19
2019-05-10T01:41:47.210Z,92.45
2019-05-10T01:44:16.123Z,92.49
2019-05-10T01:46:44.733Z,92.62
2019-05-10T01:49:13.783Z,92.72
2019-05-10T01:51:42.792Z,92.85
2019-05-10T01:54:11.668Z,92.83
2019-05-10T01:56:40.970Z,92.93
2019-05-10T01:59:09.968Z,92.67
2019-05-10T02:01:39.267Z,92.59
2019-05-10T02:04:08.364Z,92.56
2019-05-10T02:06:37.010Z,92.42
2019-05-10T02:09:07.351Z,92.63
2019-05-10T02:11:38.155Z,92.92
2019-05-10T02:14:06.780Z,93.02
2019-05-10T02:16:35.668Z,92.99
2019-05-10T02:19:04.404Z,93.12
2019-05-10T02:21:33.371Z,93.35
2019-05-10T02:24:02.259Z,93.40
2019-05-10T02:26:31.322Z,93.26
2019-05-10T02:29:00.552Z,93.34
2019-05-10T02:31:29.850Z,93.66
2019-05-10T02:33:59.053Z,93.66
2019-05-10T02:36:27.760Z,93.33
2019-05-10T02:38:56.740Z,93.55
2019-05-10T02:41:25.929Z,93.54
2019-05-10T02:43:55.234Z,93.44
2019-05-10T02:46:23.873Z,93.40
2019-05-10T02:48:52.808Z,93.22
2019-05-10T02:51:21.439Z,93.20
2019-05-10T02:53:50.091Z,93.19
2019-05-10T02:56:30.210Z,93.31
2019-05-10T02:58:49.917Z,93.39
2019-05-10T03:01:21.038Z,93.40
2019-05-10T03:03:51.465Z,93.37
2019-05-10T03:06:20.530Z,93.29
2019-05-10T03:08:51.529Z,93.07
2019-05-10T03:11:20.296Z,93.08
2019-05-10T03:13:51.649Z,93.24
2019-05-10T03:16:22.606Z,93.54
2019-05-10T03:18:52.811Z,93.54
2019-05-10T03:21:23.043Z,93.54
2019-05-10T03:23:52.465Z,93.56
2019-05-10T03:26:21.442Z,93.66
2019-05-10T03:28:50.171Z,93.60
2019-05-10T03:31:19.434Z,93.48
2019-05-10T03:33:55.805Z,93.37
2019-05-10T03:36:18.470Z,93.31
2019-05-10T03:38:47.544Z,93.23
2019-05-10T03:41:16.855Z,93.14
2019-05-10T03:43:45.831Z,92.98
2019-05-10T03:46:14.560Z,92.99
2019-05-10T03:48:43.494Z,92.88
2019-05-10T03:51:12.402Z,92.83
2019-05-10T03:53:41.026Z,92.63
2019-05-10T03:56:09.976Z,92.41
2019-05-10T03:58:38.971Z,92.45
2019-05-10T04:01:07.607Z,92.31
2019-05-10T04:03:39.617Z,92.06
2019-05-10T04:06:08.664Z,91.87
2019-05-10T04:08:37.713Z,90.94
2019-05-10T04:11:06.343Z,90.51
2019-05-10T04:13:35.014Z,90.12
2019-05-10T04:16:03.642Z,89.57
2019-05-10T04:18:32.647Z,89.53
2019-05-10T04:21:01.864Z,89.60
2019-05-10T04:23:30.878Z,89.96
2019-05-10T04:25:59.847Z,90.42
2019-05-10T04:28:29.161Z,91.01
2019-05-10T04:30:57.824Z,91.09
2019-05-10T04:33:27.164Z,91.17
2019-05-10T04:35:55.751Z,91.38
2019-05-10T04:38:24.527Z,91.05
2019-05-10T04:40:53.807Z,90.85
2019-05-10T04:43:22.708Z,90.89
2019-05-10T04:45:51.719Z,91.12
2019-05-10T04:48:20.370Z,91.36
2019-05-10T04:50:49.688Z,91.63
2019-05-10T04:53:18.597Z,91.66
2019-05-10T04:55:47.879Z,91.67
2019-05-10T04:58:16.483Z,91.66
2019-05-10T05:00:45.482Z,91.56
2019-05-10T05:03:14.125Z,91.59
2019-05-10T05:05:42.764Z,91.18
2019-05-10T05:08:12.133Z,91.10
2019-05-10T05:10:41.539Z,91.01
2019-05-10T05:13:10.419Z,90.74
2019-05-10T05:15:39.909Z,90.56
2019-05-10T05:18:08.921Z,90.19
2019-05-10T05:20:37.809Z,89.92
2019-05-10T05:23:06.459Z,89.82
2019-05-10T05:25:40.195Z,89.91
2019-05-10T05:28:08.409Z,89.76
2019-05-10T05:30:38.887Z,89.63
2019-05-10T05:33:08.102Z,89.22
2019-05-10T05:35:36.815Z,88.83
2019-05-10T05:38:05.787Z,88.51
2019-05-10T05:40:34.423Z,87.23
2019-05-10T05:43:08.252Z,86.90
2019-05-10T05:45:35.617Z,85.89
2019-05-10T05:48:04.316Z,85.03
2019-05-10T05:50:33.212Z,83.92
2019-05-10T05:53:01.892Z,84.00
2019-05-10T05:55:32.194Z,83.68
2019-05-10T05:58:04.887Z,83.11
2019-05-10T06:00:37.725Z,82.93
2019-05-10T06:03:02.280Z,82.13
2019-05-10T06:05:34.631Z,80.66
2019-05-10T06:08:01.766Z,78.84
2019-05-10T06:10:31.099Z,77.61
2019-05-10T06:12:59.814Z,77.71
2019-05-10T06:15:31.122Z,76.75
2019-05-10T06:18:03.354Z,76.49
2019-05-10T06:20:30.438Z,76.09
2019-05-10T06:23:06.286Z,75.12
2019-05-10T06:25:39.436Z,75.44
2019-05-10T06:28:01.297Z,74.58
2019-05-10T06:30:30.319Z,74.51
2019-05-10T06:33:03.501Z,74.12
2019-05-10T06:35:30.836Z,75.00
2019-05-10T06:38:00.149Z,74.70
2019-05-10T06:40:35.593Z,74.50
2019-05-10T06:42:59.596Z,74.02
2019-05-10T06:45:28.582Z,75.67
2019-05-10T06:47:57.216Z,75.91
2019-05-10T06:50:29.961Z,76.16
2019-05-10T06:53:00.529Z,77.29
2019-05-10T06:55:28.343Z,76.85
2019-05-10T06:58:00.587Z,77.32
2019-05-10T07:00:27.659Z,77.97
2019-05-10T07:02:56.655Z,79.02
2019-05-10T07:05:25.349Z,78.73
2019-05-10T07:08:00.674Z,77.92
2019-05-10T07:10:25.629Z,79.40
2019-05-10T07:12:56.983Z,79.24
2019-05-10T07:15:25.517Z,79.83
2019-05-10T07:17:54.506Z,79.42
2019-05-10T07:20:29.124Z,81.64
2019-05-10T07:22:53.870Z,82.50
2019-05-10T07:25:22.508Z,83.24
2019-05-10T07:27:52.023Z,86.21
2019-05-10T07:30:30.802Z,87.50
2019-05-10T07:33:02.003Z,88.27
2019-05-10T07:35:36.343Z,88.68
2019-05-10T07:38:01.225Z,88.38
2019-05-10T07:40:30.246Z,89.47
2019-05-10T07:42:59.517Z,89.37
2019-05-10T07:45:28.225Z,89.37
2019-05-10T07:47:57.196Z,87.17
2019-05-10T07:50:25.846Z,85.93
2019-05-10T07:52:54.548Z,85.54
2019-05-10T07:55:28.363Z,85.94
2019-05-10T07:57:53.604Z,84.99
2019-05-10T08:00:25.299Z,84.30
2019-05-10T08:03:02.822Z,83.43
2019-05-10T08:05:23.325Z,81.94
2019-05-10T08:07:52.299Z,80.95
2019-05-10T08:10:21.565Z,80.22
2019-05-10T08:12:50.461Z,79.20
2019-05-10T08:15:19.692Z,81.16
2019-05-10T08:17:50.993Z,80.49
2019-05-10T08:20:30.705Z,80.09
2019-05-10T08:22:52.574Z,79.00
2019-05-10T08:25:22.967Z,78.24
2019-05-10T08:27:55.253Z,77.21
2019-05-10T08:30:35.776Z,77.46
2019-05-10T08:33:09.350Z,78.18
2019-05-10T08:35:38.245Z,79.81
2019-05-10T08:38:06.019Z,80.09
2019-05-10T08:40:37.849Z,80.01
2019-05-10T08:43:08.961Z,80.53
2019-05-10T08:45:38.628Z,80.53
2019-05-10T08:48:07.199Z,80.78
2019-05-10T08:50:49.577Z,81.99
2019-05-10T08:53:10.727Z,79.44
2019-05-10T08:55:37.288Z,78.90
2019-05-10T08:58:06.191Z,78.98
2019-05-10T09:00:49.320Z,78.76
2019-05-10T09:03:09.267Z,76.56
2019-05-10T09:05:39.482Z,76.25
2019-05-10T09:08:11.661Z,72.03
2019-05-10T09:10:37.379Z,72.67
2019-05-10T09:13:06.081Z,72.21
2019-05-10T09:15:34.740Z,70.94
2019-05-10T09:18:07.357Z,70.15
2019-05-10T09:20:33.797Z,69.13
2019-05-10T09:23:02.886Z,69.55
2019-05-10T09:25:33.733Z,69.70
2019-05-10T09:28:10.675Z,69.44
2019-05-10T09:30:35.645Z,68.22
2019-05-10T09:33:08.660Z,68.97
2019-05-10T09:35:38.995Z,70.05
2019-05-10T09:38:06.562Z,71.04
2019-05-10T09:40:42.518Z,68.04
2019-05-10T09:43:09.675Z,67.77
2019-05-10T09:45:36.005Z,67.41
2019-05-10T09:48:04.996Z,68.19
2019-05-10T09:50:41.332Z,70.17
2019-05-10T09:53:06.731Z,71.60
2019-05-10T09:55:36.933Z,73.51
2019-05-10T09:58:08.430Z,73.59
2019-05-10T10:00:38.168Z,73.70
2019-05-10T10:03:08.424Z,73.65
2019-05-10T10:05:39.896Z,72.49
2019-05-10T10:08:08.996Z,72.15
2019-05-10T10:10:38.062Z,73.89
2019-05-10T10:13:13.724Z,73.54
2019-05-10T10:15:37.506Z,72.60
2019-05-10T10:18:06.637Z,73.17
2019-05-10T10:20:43.002Z,74.62
2019-05-10T10:23:07.330Z,74.11
2019-05-10T10:25:40.818Z,74.20
2019-05-10T10:28:16.734Z,73.77
2019-05-10T10:30:38.394Z,72.95
2019-05-10T10:33:11.516Z,72.28
2019-05-10T10:35:38.184Z,72.14
2019-05-10T10:38:08.113Z,72.01
2019-05-10T10:40:44.179Z,73.87
2019-05-10T10:43:08.151Z,74.56
2019-05-10T10:45:37.802Z,75.41
2019-05-10T10:48:08.558Z,75.25
2019-05-10T10:50:37.191Z,75.75
2019-05-10T10:53:07.982Z,76.02
2019-05-10T10:55:40.016Z,74.36
2019-05-10T10:58:07.742Z,74.71
2019-05-10T11:00:38.881Z,74.37
2019-05-10T11:03:07.713Z,74.79
2019-05-10T11:05:36.707Z,74.28
2019-05-10T11:08:06.101Z,73.42
2019-05-10T11:10:35.064Z,74.52
2019-05-10T11:13:11.959Z,75.09
2019-05-10T11:15:36.332Z,75.19
2019-05-10T11:18:05.118Z,75.29
2019-05-10T11:20:33.751Z,73.30
2019-05-10T11:23:02.703Z,72.30
2019-05-10T11:25:32.005Z,71.74
2019-05-10T11:28:01.922Z,73.08
2019-05-10T11:30:32.552Z,70.56
2019-05-10T11:33:01.842Z,71.39
2019-05-10T11:35:33.831Z,71.18
2019-05-10T11:38:01.353Z,72.09
2019-05-10T11:40:32.660Z,72.75
2019-05-10T11:43:01.501Z,72.92
2019-05-10T11:45:34.361Z,72.71
2019-05-10T11:48:02.178Z,74.25
2019-05-10T11:50:35.134Z,75.14
2019-05-10T11:53:06.999Z,73.61
2019-05-10T11:55:35.322Z,75.58
2019-05-10T11:58:08.908Z,77.19
2019-05-10T12:00:34.529Z,78.07
2019-05-10T12:03:11.431Z,77.42
2019-05-10T12:05:34.043Z,78.45
2019-05-10T12:08:03.019Z,79.68
2019-05-10T12:10:32.156Z,80.97
2019-05-10T12:13:11.303Z,84.06
2019-05-10T12:15:32.055Z,87.36
2019-05-10T12:18:04.703Z,87.78
2019-05-10T12:20:41.285Z,89.41
2019-05-10T12:23:03.399Z,90.38
2019-05-10T12:26:30.550Z,89.56
2019-05-10T12:28:03.104Z,88.43
2019-05-10T12:30:34.875Z,89.01
2019-05-10T12:33:08.017Z,89.25
2019-05-10T12:35:39.742Z,89.70
2019-05-10T12:38:04.382Z,90.34
2019-05-10T12:40:33.083Z,90.82
2019-05-10T12:43:02.031Z,90.55
2019-05-10T12:45:31.412Z,91.30
2019-05-10T12:48:01.267Z,90.35
2019-05-10T12:50:30.348Z,89.84
2019-05-10T12:53:10.165Z,88.50
2019-05-10T12:55:30.283Z,88.54
2019-05-10T12:57:58.948Z,86.01
2019-05-10T13:00:27.968Z,86.46
2019-05-10T13:03:11.593Z,85.19
2019-05-10T13:05:32.175Z,81.30
2019-05-10T13:07:58.225Z,80.69
2019-05-10T13:10:27.013Z,77.90
2019-05-10T13:12:56.518Z,78.68
2019-05-10T13:15:31.216Z,78.77
2019-05-10T13:17:56.450Z,76.65
2019-05-10T13:20:25.465Z,70.94
2019-05-10T13:22:54.095Z,72.25
2019-05-10T13:25:22.768Z,69.96
2019-05-10T13:27:52.017Z,71.10
2019-05-10T13:30:27.520Z,70.75
2019-05-10T13:32:58.408Z,75.16
2019-05-10T13:35:23.877Z,70.96
2019-05-10T13:37:56.838Z,73.50
2019-05-10T13:40:23.766Z,73.31
2019-05-10T13:42:52.736Z,72.65
2019-05-10T13:45:21.436Z,74.17
2019-05-10T13:47:50.045Z,73.19
2019-05-10T13:50:27.320Z,73.40
2019-05-10T13:52:56.286Z,73.83
2019-05-10T13:55:24.955Z,73.52
2019-05-10T13:57:54.211Z,72.79
2019-05-10T14:00:33.150Z,74.39
2019-05-10T14:02:53.798Z,73.32
2019-05-10T14:05:22.692Z,73.02
2019-05-10T14:07:53.138Z,72.80
2019-05-10T14:10:25.212Z,73.41
2019-05-10T14:12:56.186Z,73.56
2019-05-10T14:15:24.950Z,73.83
2019-05-10T14:17:53.923Z,75.94
2019-05-10T14:20:27.672Z,76.74
2019-05-10T14:22:55.911Z,77.35
2019-05-10T14:25:23.826Z,76.46
2019-05-10T14:27:54.519Z,76.50
2019-05-10T14:30:23.210Z,75.46
2019-05-10T14:32:52.166Z,75.47
2019-05-10T14:35:22.481Z,75.46
2019-05-10T14:37:52.094Z,76.68
2019-05-10T14:40:27.952Z,77.75
2019-05-10T14:42:51.625Z,76.23
2019-05-10T14:45:20.371Z,76.16
2019-05-10T14:47:50.518Z,76.49
2019-05-10T14:50:26.191Z,77.38
2019-05-10T14:52:50.730Z,76.91
2019-05-10T14:55:19.967Z,77.09
2019-05-10T14:57:48.877Z,77.18
2019-05-10T15:00:18.158Z,78.10
2019-05-10T15:02:46.982Z,78.31
2019-05-10T15:05:18.115Z,77.80
2019-05-10T15:07:46.679Z,79.64
2019-05-10T15:10:15.668Z,81.87
2019-05-10T15:12:44.665Z,83.08
2019-05-10T15:15:13.657Z,83.50
2019-05-10T15:17:43.015Z,83.08
2019-05-10T15:20:12.319Z,82.28
2019-05-10T15:22:41.513Z,81.97
2019-05-10T15:25:10.554Z,81.80
2019-05-10T15:27:39.577Z,82.69
2019-05-10T15:30:08.620Z,81.73
2019-05-10T15:32:37.635Z,82.16
2019-05-10T15:35:08.583Z,82.46
2019-05-10T15:37:40.731Z,83.06
2019-05-10T15:40:08.751Z,82.12
2019-05-10T15:42:38.538Z,82.06
2019-05-10T15:45:12.293Z,81.75
2019-05-10T15:47:50.476Z,81.80
2019-05-10T15:50:09.708Z,81.58
2019-05-10T15:52:45.501Z,80.47
2019-05-10T15:55:09.073Z,80.40
2019-05-10T15:57:37.745Z,80.03
2019-05-10T16:00:06.519Z,79.46
2019-05-10T16:02:35.196Z,78.88
2019-05-10T16:05:22.988Z,78.68
2019-05-10T16:07:35.326Z,78.81
2019-05-10T16:10:04.736Z,78.83
2019-05-10T16:12:37.920Z,78.46
2019-05-10T16:15:04.773Z,77.76
2019-05-10T16:17:33.411Z,77.60
2019-05-10T16:20:02.065Z,77.86
2019-05-10T16:22:32.039Z,77.22
2019-05-10T16:25:02.836Z,76.33
2019-05-10T16:27:33.969Z,75.75
2019-05-10T16:30:02.867Z,75.69
2019-05-10T16:32:34.412Z,76.25
2019-05-10T16:35:05.589Z,76.08
2019-05-10T16:37:32.646Z,76.25
2019-05-10T16:40:02.126Z,75.41
2019-05-10T16:42:34.661Z,75.56
2019-05-10T16:45:01.306Z,75.08
2019-05-10T16:47:30.404Z,75.45
2019-05-10T16:49:59.690Z,75.45
2019-05-10T16:52:28.651Z,74.55
2019-05-10T16:55:03.661Z,74.80
2019-05-10T16:57:31.993Z,75.42
2019-05-10T17:00:01.984Z,75.55
2019-05-10T17:02:29.610Z,76.04
2019-05-10T17:04:58.980Z,75.61
2019-05-10T17:07:28.287Z,74.52
2019-05-10T17:09:56.910Z,73.87
2019-05-10T17:12:27.712Z,73.62
2019-05-10T17:15:02.318Z,73.98
2019-05-10T17:17:31.430Z,73.19
2019-05-10T17:19:58.731Z,73.09
2019-05-10T17:22:28.106Z,71.73
2019-05-10T17:25:02.853Z,71.64
2019-05-10T17:27:27.395Z,72.08
2019-05-10T17:29:56.026Z,72.44
2019-05-10T17:32:26.677Z,72.67
2019-05-10T17:34:59.171Z,72.94
2019-05-10T17:37:29.789Z,73.03
2019-05-10T17:39:57.181Z,73.25
2019-05-10T17:42:26.170Z,72.37
2019-05-10T17:45:01.943Z,72.70
2019-05-10T17:47:27.179Z,72.24
2019-05-10T17:49:57.040Z,71.89
2019-05-10T17:52:25.936Z,71.12
2019-05-10T17:54:55.127Z,71.09
2019-05-10T17:57:23.739Z,71.21
2019-05-10T17:59:54.510Z,71.45
2019-05-10T18:02:22.723Z,71.41
2019-05-10T18:04:51.619Z,71.63
2019-05-10T18:07:20.271Z,71.85
2019-05-10T18:09:50.318Z,71.14
2019-05-10T18:12:20.328Z,71.71
2019-05-10T18:14:50.205Z,71.30
2019-05-10T18:17:20.831Z,72.16
2019-05-10T18:19:50.844Z,72.12
2019-05-10T18:22:19.454Z,72.45
2019-05-10T18:24:48.096Z,72.52
2019-05-10T18:27:17.076Z,72.81
2019-05-10T18:29:45.954Z,72.99
2019-05-10T18:32:14.951Z,73.25
2019-05-10T18:34:46.977Z,73.40
2019-05-10T18:37:15.751Z,73.47
2019-05-10T18:39:47.213Z,73.58
2019-05-10T18:42:18.918Z,73.36
2019-05-10T18:44:52.029Z,73.79
2019-05-10T18:47:16.529Z,73.33
2019-05-10T18:49:45.183Z,73.15
2019-05-10T18:52:13.852Z,72.99
2019-05-10T18:54:42.753Z,73.53
2019-05-10T18:57:18.842Z,73.66
2019-05-10T18:59:45.547Z,73.67
2019-05-10T19:02:17.792Z,73.85
2019-05-10T19:04:45.661Z,73.69
2019-05-10T19:07:14.811Z,73.78
2019-05-10T19:09:44.088Z,75.74
2019-05-10T19:12:18.615Z,75.18
2019-05-10T19:14:43.726Z,74.79
2019-05-10T19:17:12.381Z,74.94
2019-05-10T19:19:42.298Z,74.89
2019-05-10T19:22:11.823Z,74.95
2019-05-10T19:24:40.733Z,75.46
2019-05-10T19:27:09.641Z,75.67
2019-05-10T19:29:45.376Z,75.74
2019-05-10T19:32:11.398Z,75.57
2019-05-10T19:34:39.297Z,75.47
2019-05-10T19:37:07.940Z,75.89
2019-05-10T19:39:36.946Z,75.68
2019-05-10T19:42:06.224Z,75.34
2019-05-10T19:44:40.366Z,75.29
2019-05-10T19:47:05.492Z,75.57
2019-05-10T19:49:34.562Z,76.42
2019-05-10T19:52:03.195Z,76.23
2019-05-10T19:54:32.120Z,77.23
2019-05-10T19:57:01.729Z,77.64
2019-05-10T19:59:30.744Z,77.47
2019-05-10T20:01:59.359Z,76.70
2019-05-10T20:04:28.621Z,77.05
2019-05-10T20:06:57.500Z,77.18
2019-05-10T20:09:26.431Z,77.16
2019-05-10T20:11:55.692Z,77.72
2019-05-10T20:14:24.683Z,78.20
2019-05-10T20:16:53.708Z,78.23
2019-05-10T20:19:22.448Z,78.67
2019-05-10T20:21:51.328Z,79.04
2019-05-10T20:24:20.558Z,79.33
2019-05-10T20:26:49.445Z,79.62
2019-05-10T20:29:18.096Z,79.53
2019-05-10T20:31:50.545Z,79.33
2019-05-10T20:34:19.437Z,79.23
2019-05-10T20:36:49.436Z,80.17
2019-05-10T20:39:18.615Z,80.85
2019-05-10T20:41:47.441Z,81.29
2019-05-10T20:44:18.041Z,80.78
2019-05-10T20:46:47.544Z,81.20
2019-05-10T20:49:16.544Z,81.37
2019-05-10T20:51:45.277Z,81.60
2019-05-10T20:54:40.183Z,81.28
2019-05-10T20:57:00.716Z,81.58
2019-05-10T20:59:29.821Z,81.95
2019-05-10T21:01:58.810Z,82.47
2019-05-10T21:04:28.622Z,82.42
2019-05-10T21:06:57.603Z,82.79
2019-05-10T21:09:26.814Z,82.82
2019-05-10T21:11:56.012Z,82.79
2019-05-10T21:14:24.890Z,82.80
2019-05-10T21:16:54.165Z,83.56
2019-05-10T21:19:22.701Z,84.69
2019-05-10T21:21:52.169Z,85.11
2019-05-10T21:24:20.915Z,85.10
2019-05-10T21:26:49.983Z,85.74
2019-05-10T21:29:18.986Z,86.26
2019-05-10T21:31:48.294Z,86.58
2019-05-10T21:34:17.260Z,86.55
2019-05-10T21:36:45.898Z,86.58
2019-05-10T21:39:14.838Z,86.93
2019-05-10T21:41:43.757Z,87.30
2019-05-10T21:44:12.705Z,87.29
2019-05-10T21:46:41.388Z,87.34
2019-05-10T21:49:10.921Z,87.95
2019-05-10T21:51:39.634Z,88.31
2019-05-10T21:54:09.211Z,88.55
2019-05-10T21:56:38.548Z,88.74
2019-05-10T21:59:07.309Z,89.21
2019-05-10T22:01:36.114Z,89.68
2019-05-10T22:04:05.062Z,89.78
2019-05-10T22:06:34.081Z,89.63
2019-05-10T22:09:05.123Z,89.80
2019-05-10T22:11:33.793Z,89.59
2019-05-10T22:14:02.447Z,90.18
2019-05-10T22:16:31.487Z,90.18
2019-05-10T22:19:02.180Z,90.22
2019-05-10T22:21:31.138Z,90.28
2019-05-10T22:24:00.395Z,90.43
2019-05-10T22:26:29.308Z,90.75
2019-05-10T22:28:58.236Z,90.68
2019-05-10T22:31:27.191Z,90.74
2019-05-10T22:33:55.914Z,91.21
2019-05-10T22:36:24.541Z,90.82
2019-05-10T22:39:06.328Z,90.58
2019-05-10T22:41:24.166Z,90.58
2019-05-10T22:43:53.389Z,90.28
2019-05-10T22:46:22.014Z,90.21
2019-05-10T22:48:51.276Z,90.21
2019-05-10T22:51:20.377Z,90.28
2019-05-10T22:53:59.638Z,90.54
2019-05-10T22:56:19.381Z,90.83
2019-05-10T22:58:48.113Z,91.15
2019-05-10T23:01:17.377Z,91.61
2019-05-10T23:03:46.017Z,92.09
2019-05-10T23:06:14.668Z,91.72
2019-05-10T23:08:43.283Z,91.98
2019-05-10T23:11:11.887Z,91.90
2019-05-10T23:13:40.806Z,91.99
2019-05-10T23:16:09.458Z,92.10
2019-05-10T23:18:38.377Z,92.08
2019-05-10T23:21:07.386Z,92.10
2019-05-10T23:23:36.984Z,92.15
2019-05-10T23:26:06.060Z,92.18
2019-05-10T23:28:34.745Z,92.41
2019-05-10T23:31:03.383Z,92.51
2019-05-10T23:33:32.351Z,92.40
2019-05-10T23:36:01.260Z,92.44
2019-05-10T23:38:30.240Z,92.44
2019-05-10T23:40:58.872Z,91.62
2019-05-10T23:43:27.809Z,91.87
2019-05-10T23:45:56.780Z,92.24
2019-05-10T23:48:26.009Z,92.24
2019-05-10T23:50:54.907Z,92.66
2019-05-10T23:53:23.884Z,92.66
2019-05-10T23:55:52.875Z,92.18
2019-05-10T23:58:21.525Z,92.31
